createdAt,value
2018-01-22T00:01:59.190Z,4.00
2018-01-22T00:04:35.662Z,4.00
2018-01-22T00:07:12.866Z,4.10
2018-01-22T00:09:42.679Z,4.10
2018-01-22T00:12:12.238Z,4.30
2018-01-22T00:14:43.632Z,4.30
2018-01-22T00:17:14.191Z,4.60
2018-01-22T00:19:48.210Z,5.10
2018-01-22T00:28:07.757Z,5.60
2018-01-22T00:30:42.105Z,5.80
2018-01-22T00:36:16.675Z,6.30
2018-01-22T00:38:53.053Z,6.50
2018-01-22T00:44:11.730Z,6.90
2018-01-22T00:46:43.954Z,6.80
2018-01-22T00:49:12.379Z,6.90
2018-01-22T00:51:42.428Z,7.00
2018-01-22T00:54:17.439Z,7.10
2018-01-22T01:02:09.761Z,7.30
2018-01-22T01:07:18.568Z,7.40
2018-01-22T01:09:52.509Z,7.40
2018-01-22T01:12:35.124Z,7.50
2018-01-22T01:15:03.996Z,7.60
2018-01-22T01:17:34.236Z,7.60
2018-01-22T01:20:37.432Z,7.70
2018-01-22T01:26:04.947Z,7.70
2018-01-22T01:28:38.847Z,7.80
2018-01-22T01:31:07.486Z,7.90
2018-01-22T01:33:37.851Z,7.90
2018-01-22T01:36:06.154Z,8.00
2018-01-22T01:38:37.198Z,8.10
2018-01-22T01:41:05.875Z,8.10
2018-01-22T01:43:46.886Z,8.10
2018-01-22T01:46:18.592Z,8.20
2018-01-22T01:49:00.755Z,8.30
2018-01-22T01:54:13.548Z,8.30
2018-01-22T01:56:51.268Z,8.40
2018-01-22T01:59:28.867Z,8.40
2018-01-22T02:02:03.292Z,8.40
2018-01-22T02:04:34.255Z,8.40
2018-01-22T02:07:06.161Z,8.50
2018-01-22T02:09:43.477Z,8.50
2018-01-22T02:12:17.691Z,8.50
2018-01-22T02:14:49.164Z,8.60
2018-01-22T02:17:24.584Z,8.50
2018-01-22T02:19:54.853Z,8.60
2018-01-22T02:22:24.788Z,8.60
2018-01-22T02:27:42.634Z,8.60
2018-01-22T02:30:11.780Z,8.70
2018-01-22T02:32:46.685Z,8.70
2018-01-22T02:37:55.029Z,8.70
2018-01-22T02:40:27.163Z,8.80
2018-01-22T02:43:07.508Z,8.80
2018-01-22T02:45:38.876Z,8.80
2018-01-22T02:48:09.930Z,8.90
2018-01-22T02:50:42.745Z,8.90
2018-01-22T02:53:31.024Z,8.90
2018-01-22T02:56:10.588Z,9.00
2018-01-22T02:58:56.008Z,9.00
2018-01-22T03:01:31.952Z,9.10
2018-01-22T03:04:05.034Z,9.00
2018-01-22T03:11:49.493Z,9.20
2018-01-22T03:14:25.627Z,9.20
2018-01-22T03:16:58.224Z,9.30
2018-01-22T03:19:40.826Z,9.30
2018-01-22T03:22:21.113Z,9.40
2018-01-22T03:24:53.542Z,9.50
2018-01-22T03:27:22.048Z,9.40
2018-01-22T03:29:52.763Z,9.50
2018-01-22T03:32:26.974Z,9.50
2018-01-22T03:40:42.137Z,9.60
2018-01-22T03:43:17.648Z,9.60
2018-01-22T03:45:49.476Z,9.60
2018-01-22T03:48:20.431Z,9.70
2018-01-22T03:51:01.056Z,9.70
2018-01-22T03:53:30.404Z,9.80
2018-01-22T03:59:10.602Z,9.80
2018-01-22T04:01:44.963Z,9.80
2018-01-22T04:04:21.535Z,9.80
2018-01-22T04:06:53.080Z,9.90
2018-01-22T04:09:25.996Z,9.90
2018-01-22T04:12:01.235Z,9.90
2018-01-22T04:14:30.255Z,9.90
2018-01-22T04:17:10.721Z,9.90
2018-01-22T04:22:31.333Z,9.90
2018-01-22T04:25:06.527Z,10.00
2018-01-22T04:27:44.501Z,10.00
2018-01-22T04:30:14.196Z,10.00
2018-01-22T04:32:50.911Z,10.00
2018-01-22T04:38:08.409Z,10.10
2018-01-22T04:40:37.935Z,10.10
2018-01-22T04:43:11.036Z,10.00
2018-01-22T04:48:41.052Z,10.10
2018-01-22T04:58:56.657Z,10.20
2018-01-22T05:01:41.460Z,10.10
2018-01-22T05:06:51.993Z,10.20
2018-01-22T05:09:23.778Z,10.20
2018-01-22T05:12:03.429Z,10.20
2018-01-22T05:17:25.199Z,10.20
2018-01-22T05:22:37.921Z,10.30
2018-01-22T05:25:13.977Z,10.30
2018-01-22T05:27:54.807Z,10.20
2018-01-22T05:30:28.198Z,10.30
2018-01-22T05:32:59.768Z,10.30
2018-01-22T05:35:46.788Z,10.30
2018-01-22T05:38:25.879Z,10.30
2018-01-22T05:46:21.233Z,10.30
2018-01-22T05:48:51.645Z,10.30
2018-01-22T05:51:29.868Z,10.30
2018-01-22T05:54:06.959Z,10.40
2018-01-22T05:59:12.166Z,10.40
2018-01-22T06:01:42.336Z,10.40
2018-01-22T06:04:12.283Z,10.40
2018-01-22T06:06:51.020Z,10.40
2018-01-22T06:09:23.705Z,10.50
2018-01-22T06:11:55.575Z,10.50
2018-01-22T06:14:38.091Z,10.50
2018-01-22T06:17:13.711Z,10.50
2018-01-22T06:19:48.263Z,10.50
2018-01-22T06:22:35.444Z,10.50
2018-01-22T06:25:12.383Z,10.50
2018-01-22T06:27:51.080Z,10.50
2018-01-22T06:38:36.224Z,10.50
2018-01-22T06:41:14.371Z,10.50
2018-01-22T06:43:51.827Z,10.60
2018-01-22T06:49:07.613Z,10.50
2018-01-22T06:51:44.534Z,10.60
2018-01-22T07:09:30.607Z,10.60
2018-01-22T07:14:50.135Z,10.60
2018-01-22T07:17:34.343Z,10.60
2018-01-22T07:23:53.886Z,10.70
2018-01-22T07:31:56.100Z,10.80
2018-01-22T07:34:41.666Z,10.70
2018-01-22T07:41:54.372Z,10.70
2018-01-22T07:48:05.146Z,10.80
2018-01-22T08:00:35.845Z,10.90
2018-01-22T08:06:53.077Z,10.90
2018-01-22T08:21:42.340Z,11.00
2018-01-22T08:24:13.530Z,11.10
2018-01-22T08:32:50.089Z,11.20
2018-01-22T08:35:28.737Z,11.20
2018-01-22T08:38:03.458Z,11.20
2018-01-22T08:43:16.003Z,11.30
2018-01-22T08:45:47.310Z,11.30
2018-01-22T08:48:17.579Z,11.30
2018-01-22T08:50:46.874Z,11.30
2018-01-22T08:55:55.710Z,11.30
2018-01-22T08:58:25.904Z,11.30
2018-01-22T09:00:54.310Z,11.30
2018-01-22T09:03:24.553Z,11.30
2018-01-22T09:05:53.727Z,11.30
2018-01-22T09:08:26.175Z,11.30
2018-01-22T09:10:56.187Z,11.30
2018-01-22T09:13:36.493Z,11.30
2018-01-22T09:16:07.308Z,11.30
2018-01-22T09:18:37.655Z,11.40
2018-01-22T09:21:08.393Z,11.40
2018-01-22T09:23:36.836Z,11.30
2018-01-22T09:26:06.095Z,11.20
2018-01-22T09:28:35.325Z,11.20
2018-01-22T09:33:40.571Z,11.20
2018-01-22T09:36:09.363Z,11.10
2018-01-22T09:38:42.937Z,11.10
2018-01-22T09:41:13.129Z,11.00
2018-01-22T09:43:46.637Z,11.10
2018-01-22T09:46:15.732Z,10.90
2018-01-22T09:48:43.686Z,11.00
2018-01-22T09:51:18.706Z,10.90
2018-01-22T09:53:51.764Z,11.00
2018-01-22T09:56:27.094Z,10.90
2018-01-22T09:58:57.797Z,10.90
2018-01-22T10:01:29.139Z,10.90
2018-01-22T10:04:01.865Z,10.90
2018-01-22T10:06:35.574Z,10.90
2018-01-22T10:09:08.162Z,10.90
2018-01-22T10:11:46.975Z,10.90
2018-01-22T10:17:11.259Z,10.90
2018-01-22T10:19:45.379Z,10.90
2018-01-22T10:22:20.453Z,11.00
2018-01-22T10:27:28.720Z,11.00
2018-01-22T10:32:42.780Z,11.00
2018-01-22T10:37:53.629Z,11.00
2018-01-22T10:40:25.402Z,11.00
2018-01-22T10:42:57.040Z,11.00
2018-01-22T10:48:33.350Z,11.00
2018-01-22T10:51:29.009Z,11.00
2018-01-22T10:53:59.170Z,11.00
2018-01-22T10:56:27.811Z,11.00
2018-01-22T11:01:59.354Z,11.00
2018-01-22T11:04:33.223Z,11.00
2018-01-22T11:09:51.482Z,11.00
2018-01-22T11:12:26.882Z,11.00
2018-01-22T11:14:58.116Z,11.10
2018-01-22T11:17:35.686Z,11.00
2018-01-22T11:20:07.037Z,11.00
2018-01-22T11:22:40.772Z,11.10
2018-01-22T11:25:11.494Z,11.10
2018-01-22T11:27:49.805Z,11.00
2018-01-22T11:30:25.891Z,11.00
2018-01-22T11:32:56.201Z,10.90
2018-01-22T11:35:32.646Z,10.90
2018-01-22T11:40:45.209Z,11.00
2018-01-22T11:43:19.983Z,11.00
2018-01-22T11:45:57.330Z,11.00
2018-01-22T11:48:38.089Z,11.00
2018-01-22T11:54:06.774Z,11.00
2018-01-22T11:56:48.331Z,11.20
2018-01-22T11:59:34.088Z,11.10
2018-01-22T12:10:50.320Z,11.00
2018-01-22T12:13:21.085Z,11.00
2018-01-22T12:18:37.820Z,11.00
2018-01-22T12:21:08.189Z,11.10
2018-01-22T12:23:45.877Z,11.00
2018-01-22T13:08:38.192Z,11.00
2018-01-22T13:11:14.484Z,10.70
2018-01-22T13:13:46.528Z,10.80
2018-01-22T13:16:22.612Z,10.90
2018-01-22T13:18:55.093Z,10.90
2018-01-22T13:21:28.495Z,11.00
2018-01-22T13:23:56.892Z,11.00
2018-01-22T13:26:28.949Z,11.00
2018-01-22T13:28:56.956Z,11.10
2018-01-22T13:31:25.748Z,11.10
2018-01-22T13:33:57.501Z,11.10
2018-01-22T13:36:27.301Z,11.10
2018-01-22T13:38:57.657Z,11.10
2018-01-22T13:41:32.500Z,11.10
2018-01-22T13:44:03.247Z,11.10
2018-01-22T13:46:31.469Z,11.20
2018-01-22T13:49:00.454Z,11.20
2018-01-22T13:51:28.941Z,11.20
2018-01-22T13:54:01.280Z,11.30
2018-01-22T13:56:37.919Z,11.30
2018-01-22T13:59:17.047Z,11.30
2018-01-22T14:04:27.856Z,11.30
2018-01-22T14:07:04.848Z,11.20
2018-01-22T14:09:37.534Z,11.20
2018-01-22T14:12:18.996Z,11.20
2018-01-22T14:14:48.390Z,11.10
2018-01-22T14:17:22.985Z,11.20
2018-01-22T14:20:00.309Z,11.20
2018-01-22T14:22:31.155Z,11.10
2018-01-22T14:25:08.766Z,11.10
2018-01-22T14:27:39.405Z,11.10
2018-01-22T14:30:10.715Z,11.20
2018-01-22T14:35:21.455Z,11.20
2018-01-22T14:38:05.758Z,11.20
2018-01-22T14:43:32.331Z,11.20
2018-01-22T14:46:03.442Z,11.20
2018-01-22T14:48:33.599Z,11.20
2018-01-22T14:51:02.996Z,11.30
2018-01-22T14:53:36.307Z,11.20
2018-01-22T14:56:05.808Z,11.20
2018-01-22T14:58:41.939Z,11.20
2018-01-22T15:01:12.437Z,11.30
2018-01-22T15:03:47.856Z,11.20
2018-01-22T15:06:19.599Z,11.20
2018-01-22T15:08:49.109Z,11.20
2018-01-22T15:11:18.119Z,11.10
2018-01-22T15:13:52.120Z,11.20
2018-01-22T15:16:22.763Z,11.10
2018-01-22T15:18:51.073Z,11.10
2018-01-22T15:21:23.100Z,11.10
2018-01-22T15:29:09.308Z,11.10
2018-01-22T15:31:44.722Z,11.00
2018-01-22T15:34:18.674Z,11.00
2018-01-22T15:36:51.956Z,10.90
2018-01-22T15:39:25.508Z,10.90
2018-01-22T15:41:54.721Z,10.90
2018-01-22T15:44:23.590Z,10.90
2018-01-22T15:47:07.302Z,11.00
2018-01-22T15:49:41.892Z,11.00
2018-01-22T15:52:11.350Z,11.00
2018-01-22T15:54:49.050Z,11.00
2018-01-22T15:57:20.025Z,11.00
2018-01-22T17:22:29.193Z,10.90
2018-01-22T17:24:59.604Z,10.40
2018-01-22T17:27:28.909Z,10.40
2018-01-22T17:29:58.316Z,10.40
2018-01-22T17:32:27.580Z,10.30
2018-01-22T17:35:00.447Z,10.40
2018-01-22T17:37:28.746Z,10.30
2018-01-22T17:39:59.190Z,10.00
2018-01-22T17:42:27.659Z,9.90
2018-01-22T17:45:03.469Z,9.80
2018-01-22T17:47:41.706Z,9.50
2018-01-22T17:50:11.498Z,9.50
2018-01-22T17:52:46.216Z,9.50
2018-01-22T17:55:21.362Z,9.50
2018-01-22T17:57:53.228Z,9.30
2018-01-22T18:00:20.747Z,9.30
2018-01-22T18:02:49.102Z,9.40
2018-01-22T18:05:16.666Z,9.40
2018-01-22T18:07:44.255Z,9.40
2018-01-22T18:10:11.791Z,9.40
2018-01-22T18:12:39.327Z,9.50
2018-01-22T18:15:06.958Z,9.50
2018-01-22T18:17:34.498Z,9.50
2018-01-22T18:20:02.826Z,9.60
2018-01-22T18:22:30.561Z,9.60
2018-01-22T18:24:58.202Z,9.70
2018-01-22T18:27:25.815Z,9.60
2018-01-22T18:29:54.183Z,9.70
2018-01-22T18:32:21.754Z,9.60
2018-01-22T18:34:49.282Z,9.60
2018-01-22T18:37:16.857Z,9.70
2018-01-22T18:39:44.429Z,9.70
2018-01-22T18:42:11.995Z,9.70
2018-01-22T18:44:39.570Z,9.80
2018-01-22T18:47:07.197Z,9.70
2018-01-22T18:49:34.725Z,9.70
2018-01-22T18:52:02.370Z,9.60
2018-01-22T18:54:29.959Z,9.60
2018-01-22T18:56:57.569Z,9.60
2018-01-22T18:59:25.154Z,9.60
2018-01-22T19:01:52.739Z,9.60
2018-01-22T19:04:21.107Z,9.50
2018-01-22T19:06:48.683Z,9.60
2018-01-22T19:09:16.315Z,9.60
2018-01-22T19:11:43.882Z,9.70
2018-01-22T19:14:11.410Z,9.60
2018-01-22T19:16:38.987Z,9.60
2018-01-22T19:19:06.562Z,9.60
2018-01-22T19:21:34.123Z,9.50
2018-01-22T19:24:01.738Z,9.60
2018-01-22T19:26:30.119Z,9.50
2018-01-22T19:28:58.527Z,9.40
2018-01-22T19:31:26.877Z,9.40
2018-01-22T19:33:54.411Z,9.40
2018-01-22T19:36:21.970Z,9.40
2018-01-22T19:38:49.581Z,9.40
2018-01-22T19:41:17.147Z,9.40
2018-01-22T19:43:44.752Z,9.50
2018-01-22T19:46:12.409Z,9.50
2018-01-22T19:48:39.950Z,9.50
2018-01-22T19:51:07.583Z,9.50
2018-01-22T19:53:35.169Z,9.50
2018-01-22T19:56:03.577Z,9.50
2018-01-22T19:58:31.768Z,9.50
2018-01-22T20:00:59.515Z,9.50
2018-01-22T20:03:28.835Z,9.30
2018-01-22T20:05:57.224Z,9.40
2018-01-22T20:08:24.751Z,9.30
2018-01-22T20:10:52.374Z,9.40
2018-01-22T20:13:20.674Z,9.40
2018-01-22T20:15:49.065Z,9.30
2018-01-22T20:18:17.397Z,9.30
2018-01-22T20:20:44.962Z,9.30
2018-01-22T20:23:12.546Z,9.20
2018-01-22T20:25:43.045Z,9.20
2018-01-22T20:28:10.633Z,9.20
2018-01-22T20:30:38.216Z,9.30
2018-01-22T20:33:05.830Z,9.20
2018-01-22T20:35:33.447Z,9.20
2018-01-22T20:38:01.798Z,9.20
2018-01-22T20:40:29.433Z,9.20
2018-01-22T20:42:57.844Z,9.20
2018-01-22T20:45:26.307Z,9.20
2018-01-22T20:47:54.658Z,9.10
2018-01-22T20:50:27.775Z,9.10
2018-01-22T20:52:56.002Z,9.10
2018-01-22T20:55:25.508Z,9.10
2018-01-22T20:57:53.861Z,9.10
2018-01-22T21:00:21.498Z,9.10
2018-01-22T21:02:49.121Z,9.20
2018-01-22T21:05:17.642Z,9.20
2018-01-22T21:07:45.986Z,9.20
2018-01-22T21:10:14.721Z,9.20
2018-01-22T21:12:42.311Z,9.20
2018-01-22T21:15:09.909Z,9.20
2018-01-22T21:17:37.513Z,9.10
2018-01-22T21:20:05.170Z,9.20
2018-01-22T21:22:32.773Z,9.20
2018-01-22T21:25:00.392Z,9.20
2018-01-22T21:27:28.009Z,9.10
2018-01-22T21:29:55.684Z,9.20
2018-01-22T21:32:23.222Z,9.20
2018-01-22T21:34:50.847Z,9.20
2018-01-22T21:37:18.374Z,9.20
2018-01-22T21:39:45.998Z,9.20
2018-01-22T21:42:14.301Z,9.20
2018-01-22T21:44:42.638Z,9.20
2018-01-22T21:47:10.200Z,9.20
2018-01-22T21:49:37.769Z,9.20
2018-01-22T21:52:05.381Z,9.10
2018-01-22T21:54:32.958Z,9.10
2018-01-22T21:57:00.491Z,9.20
2018-01-22T21:59:28.056Z,9.10
2018-01-22T22:01:55.637Z,9.20
2018-01-22T22:04:23.265Z,9.20
2018-01-22T22:06:50.836Z,9.20
2018-01-22T22:09:18.440Z,9.20
2018-01-22T22:11:46.730Z,9.10
2018-01-22T22:14:15.070Z,9.10
2018-01-22T22:16:42.602Z,9.10
2018-01-22T22:19:10.185Z,9.10
2018-01-22T22:21:37.717Z,9.10
2018-01-22T22:24:05.287Z,9.10
2018-01-22T22:26:32.818Z,9.10
2018-01-22T22:29:00.430Z,9.10
2018-01-22T22:31:28.042Z,9.20
2018-01-22T22:33:55.621Z,9.10
2018-01-22T22:36:23.159Z,8.70
2018-01-22T22:38:50.740Z,8.60
2018-01-22T22:41:19.036Z,8.30
2018-01-22T22:43:47.365Z,8.20
2018-01-22T22:46:14.939Z,8.20
2018-01-22T22:48:43.340Z,8.30
2018-01-22T22:51:11.646Z,8.20
2018-01-22T22:53:40.182Z,8.20
2018-01-22T22:56:10.173Z,8.30
2018-01-22T22:58:39.390Z,8.30
2018-01-22T23:01:08.348Z,8.20
2018-01-22T23:03:36.744Z,8.20
2018-01-22T23:06:05.079Z,8.20
2018-01-22T23:08:32.659Z,8.20
2018-01-22T23:11:01.910Z,8.20
2018-01-22T23:13:29.487Z,8.20
2018-01-22T23:15:57.898Z,8.20
2018-01-22T23:18:25.474Z,8.20
2018-01-22T23:20:53.959Z,8.20
2018-01-22T23:23:21.531Z,8.20
2018-01-22T23:25:49.055Z,8.30
2018-01-22T23:28:16.624Z,8.40
2018-01-22T23:30:44.147Z,8.30
2018-01-22T23:33:11.714Z,8.30
2018-01-22T23:35:39.250Z,8.20
2018-01-22T23:38:08.319Z,8.20
2018-01-22T23:40:35.851Z,8.00
2018-01-22T23:43:04.198Z,8.00
2018-01-22T23:45:31.744Z,8.00
2018-01-22T23:47:59.327Z,8.00
2018-01-22T23:50:26.857Z,8.00
2018-01-22T23:52:56.170Z,8.00
2018-01-22T23:55:23.764Z,8.00
2018-01-22T23:57:52.083Z,8.10
